createdAt,value
2018-07-05T00:05:09.880Z,100409.40
2018-07-05T00:10:25.351Z,100420.84
2018-07-05T00:15:40.336Z,100417.19
2018-07-05T00:20:55.058Z,100435.55
2018-07-05T00:26:09.941Z,100421.06
2018-07-05T00:31:24.644Z,100418.70
2018-07-05T00:36:39.390Z,100430.00
2018-07-05T00:41:54.118Z,100430.48
2018-07-05T00:47:08.807Z,100431.50
2018-07-05T00:52:23.756Z,100428.81
2018-07-05T00:57:38.491Z,100418.56
2018-07-05T01:02:53.310Z,100425.14
2018-07-05T01:08:08.069Z,100418.84
2018-07-05T01:13:22.808Z,100409.09
2018-07-05T01:18:37.443Z,100407.70
2018-07-05T01:23:52.209Z,100403.83
2018-07-05T01:29:06.917Z,100404.70
2018-07-05T01:34:21.860Z,100403.05
2018-07-05T01:39:36.668Z,100404.98
2018-07-05T01:44:51.559Z,100402.75
2018-07-05T01:50:06.214Z,100411.89
2018-07-05T01:55:21.173Z,100414.17
2018-07-05T02:00:37.153Z,100420.61
2018-07-05T02:05:52.063Z,100429.55
2018-07-05T02:11:07.379Z,100431.95
2018-07-05T02:16:22.101Z,100423.53
2018-07-05T02:21:36.867Z,100420.59
2018-07-05T02:26:52.808Z,100423.18
2018-07-05T02:32:07.538Z,100421.23
2018-07-05T02:37:27.553Z,100427.45
2018-07-05T02:42:42.060Z,100419.91
2018-07-05T02:47:57.341Z,100425.19
2018-07-05T02:53:12.512Z,100419.95
2018-07-05T02:58:27.256Z,100415.66
2018-07-05T03:03:42.188Z,100410.84
2018-07-05T03:08:56.929Z,100411.44
2018-07-05T03:14:11.615Z,100411.44
2018-07-05T03:19:26.373Z,100410.37
2018-07-05T03:24:41.161Z,100415.17
2018-07-05T03:29:55.941Z,100421.91
2018-07-05T03:35:11.029Z,100415.47
2018-07-05T03:40:25.920Z,100415.37
2018-07-05T03:45:40.748Z,100417.84
2018-07-05T03:50:55.666Z,100417.17
2018-07-05T03:56:10.649Z,100422.25
2018-07-05T04:01:25.660Z,100413.16
2018-07-05T04:06:40.476Z,100418.31
2018-07-05T04:11:55.175Z,100424.97
2018-07-05T04:17:09.894Z,100420.84
2018-07-05T04:22:24.807Z,100420.45
2018-07-05T04:27:40.891Z,100421.11
2018-07-05T04:32:55.744Z,100416.63
2018-07-05T04:38:10.929Z,100408.31
2018-07-05T04:43:25.642Z,100415.11
2018-07-05T04:48:40.620Z,100405.02
2018-07-05T04:53:56.512Z,100407.02
2018-07-05T04:59:11.353Z,100415.00
2018-07-05T05:04:26.021Z,100415.27
2018-07-05T05:09:40.788Z,100421.84
2018-07-05T05:14:55.795Z,100422.84
2018-07-05T05:20:10.466Z,100428.67
2018-07-05T05:25:25.141Z,100423.02
2018-07-05T05:30:39.764Z,100421.16
2018-07-05T05:35:55.454Z,100434.05
2018-07-05T05:41:10.160Z,100437.52
2018-07-05T05:46:25.088Z,100444.22
2018-07-05T05:51:39.909Z,100443.34
2018-07-05T05:56:54.734Z,100441.55
2018-07-05T06:02:09.521Z,100445.80
2018-07-05T06:07:24.590Z,100441.48
2018-07-05T06:12:39.397Z,100441.05
2018-07-05T06:17:55.143Z,100449.95
2018-07-05T06:23:10.092Z,100456.61
2018-07-05T06:28:24.813Z,100465.83
2018-07-05T06:33:39.770Z,100457.83
2018-07-05T06:38:54.588Z,100458.55
2018-07-05T06:44:09.201Z,100465.66
2018-07-05T06:49:25.549Z,100465.95
2018-07-05T06:54:40.448Z,100464.56
2018-07-05T06:59:55.258Z,100466.22
2018-07-05T07:05:12.305Z,100459.23
2018-07-05T07:10:27.028Z,100464.31
2018-07-05T07:15:41.982Z,100459.08
2018-07-05T07:20:56.766Z,100461.39
2018-07-05T07:26:11.431Z,100466.17
2018-07-05T07:31:26.498Z,100462.76
2018-07-05T07:36:41.271Z,100451.95
2018-07-05T07:41:49.833Z,100463.55
2018-07-05T07:46:52.140Z,100468.09
2018-07-05T07:51:54.473Z,100472.77
2018-07-05T07:56:56.799Z,100473.89
2018-07-05T08:01:59.335Z,100473.21
2018-07-05T08:07:01.641Z,100476.41
2018-07-05T08:12:03.997Z,100464.28
2018-07-05T08:17:06.301Z,100465.45
2018-07-05T08:22:08.636Z,100456.27
2018-07-05T08:27:10.963Z,100454.88
2018-07-05T08:32:13.509Z,100447.66
2018-07-05T08:37:15.863Z,100438.66
2018-07-05T08:42:18.191Z,100441.58
2018-07-05T08:47:20.505Z,100429.55
2018-07-05T08:52:22.847Z,100438.33
2018-07-05T08:57:25.165Z,100437.48
2018-07-05T09:02:28.230Z,100434.91
2018-07-05T09:07:30.685Z,100433.70
2018-07-05T09:12:33.175Z,100423.96
2018-07-05T09:17:35.555Z,100427.25
2018-07-05T09:22:37.853Z,100421.50
2018-07-05T09:27:40.742Z,100417.31
2018-07-05T09:32:43.089Z,100412.80
2018-07-05T09:37:45.769Z,100413.06
2018-07-05T09:42:48.114Z,100405.75
2018-07-05T09:47:50.448Z,100405.93
2018-07-05T09:52:53.665Z,100401.97
2018-07-05T09:57:55.972Z,100407.27
2018-07-05T10:02:58.325Z,100414.38
2018-07-05T10:08:00.638Z,100403.78
2018-07-05T10:13:04.927Z,100415.08
2018-07-05T10:18:07.271Z,100406.54
2018-07-05T10:23:09.641Z,100410.12
2018-07-05T10:28:11.967Z,100407.01
2018-07-05T10:33:26.871Z,100409.48
2018-07-05T10:38:29.181Z,100407.26
2018-07-05T10:43:44.143Z,100411.38
2018-07-05T10:48:58.856Z,100401.36
2018-07-05T10:54:13.795Z,100406.85
2018-07-05T10:59:28.642Z,100413.51
2018-07-05T11:04:44.356Z,100411.42
2018-07-05T11:09:59.136Z,100410.31
2018-07-05T11:15:13.902Z,100413.75
2018-07-05T11:20:29.797Z,100418.66
2018-07-05T11:25:44.469Z,100403.40
2018-07-05T11:30:59.281Z,100408.48
2018-07-05T11:36:13.941Z,100408.78
2018-07-05T11:41:28.710Z,100407.70
2018-07-05T11:46:43.560Z,100404.38
2018-07-05T11:51:58.364Z,100407.58
2018-07-05T11:57:13.193Z,100409.23
2018-07-05T12:02:27.906Z,100398.72
2018-07-05T12:07:42.829Z,100396.39
2018-07-05T12:12:57.678Z,100404.25
2018-07-05T12:18:12.589Z,100403.95
2018-07-05T12:23:27.196Z,100409.97
2018-07-05T12:28:41.919Z,100398.31
2018-07-05T12:33:56.564Z,100396.55
2018-07-05T12:39:11.385Z,100395.44
2018-07-05T12:44:26.115Z,100402.12
2018-07-05T12:49:41.077Z,100396.04
2018-07-05T12:54:56.381Z,100400.88
2018-07-05T13:00:16.479Z,100388.50
2018-07-05T13:05:31.400Z,100398.44
2018-07-05T13:10:46.390Z,100399.80
2018-07-05T13:16:01.034Z,100402.06
2018-07-05T13:21:15.966Z,100390.70
2018-07-05T13:26:30.800Z,100389.28
2018-07-05T13:31:45.611Z,100387.69
2018-07-05T13:37:00.396Z,100390.80
2018-07-05T13:42:15.572Z,100393.59
2018-07-05T13:47:30.932Z,100402.73
2018-07-05T13:52:46.661Z,100400.34
2018-07-05T13:58:02.101Z,100402.62
2018-07-05T14:03:17.034Z,100414.62
2018-07-05T14:08:31.691Z,100410.05
2018-07-05T14:13:46.471Z,100410.72
2018-07-05T14:19:01.182Z,100405.50
2018-07-05T14:24:16.122Z,100402.60
2018-07-05T14:29:31.307Z,100400.63
2018-07-05T14:34:46.146Z,100412.70
2018-07-05T14:40:01.405Z,100412.14
2018-07-05T14:45:16.163Z,100403.31
2018-07-05T14:50:30.930Z,100408.95
2018-07-05T14:55:45.718Z,100417.45
2018-07-05T15:01:00.639Z,100417.89
2018-07-05T15:06:15.421Z,100428.27
2018-07-05T15:11:30.209Z,100429.87
2018-07-05T15:16:45.130Z,100433.41
2018-07-05T15:22:00.129Z,100436.69
2018-07-05T15:27:15.297Z,100440.91
2018-07-05T15:32:30.994Z,100428.14
2018-07-05T15:37:45.604Z,100434.80
2018-07-05T15:43:00.406Z,100434.67
2018-07-05T15:48:15.223Z,100428.09
2018-07-05T15:53:30.724Z,100427.25
2018-07-05T15:58:45.815Z,100436.39
2018-07-05T16:04:00.509Z,100430.39
2018-07-05T16:09:15.361Z,100416.13
2018-07-05T16:14:30.272Z,100417.19
2018-07-05T16:19:45.161Z,100410.31
2018-07-05T16:24:59.955Z,100406.65
2018-07-05T16:30:15.785Z,100406.19
2018-07-05T16:35:31.030Z,100406.19
2018-07-05T16:40:47.175Z,100398.33
2018-07-05T16:46:01.925Z,100407.13
2018-07-05T16:51:16.636Z,100403.90
2018-07-05T16:56:31.510Z,100402.38
2018-07-05T17:01:46.966Z,100406.48
2018-07-05T17:07:02.734Z,100410.91
2018-07-05T17:12:18.227Z,100414.33
2018-07-05T17:17:32.986Z,100420.52
2018-07-05T17:22:47.659Z,100413.13
2018-07-05T17:28:02.651Z,100424.67
2018-07-05T17:33:17.430Z,100433.80
2018-07-05T17:38:32.479Z,100426.61
2018-07-05T17:43:47.397Z,100429.67
2018-07-05T17:49:02.152Z,100437.11
2018-07-05T17:54:16.901Z,100434.54
2018-07-05T17:59:31.628Z,100435.98
2018-07-05T18:04:46.308Z,100444.30
2018-07-05T18:10:01.154Z,100444.50
2018-07-05T18:15:16.092Z,100450.33
2018-07-05T18:20:30.928Z,100463.23
2018-07-05T18:25:45.829Z,100475.27
2018-07-05T18:31:00.544Z,100482.53
2018-07-05T18:36:15.659Z,100488.08
2018-07-05T18:41:30.739Z,100491.09
2018-07-05T18:46:45.454Z,100487.55
2018-07-05T18:52:00.849Z,100504.41
2018-07-05T18:57:15.512Z,100513.08
2018-07-05T19:02:30.337Z,100514.83
2018-07-05T19:07:45.354Z,100527.36
2018-07-05T19:12:59.962Z,100532.32
2018-07-05T19:18:14.707Z,100546.21
2018-07-05T19:23:30.021Z,100557.88
2018-07-05T19:28:44.644Z,100565.49
2018-07-05T19:33:59.499Z,100569.59
2018-07-05T19:39:14.426Z,100573.72
2018-07-05T19:44:29.410Z,100581.35
2018-07-05T19:49:44.074Z,100589.83
2018-07-05T19:54:59.008Z,100597.98
2018-07-05T20:00:18.193Z,100617.49
2018-07-05T20:05:33.481Z,100622.41
2018-07-05T20:10:52.323Z,100630.89
2018-07-05T20:16:07.067Z,100636.52
2018-07-05T20:21:21.816Z,100643.84
2018-07-05T20:26:36.620Z,100645.88
2018-07-05T20:31:54.128Z,100647.25
2018-07-05T20:37:09.078Z,100661.38
2018-07-05T20:47:36.162Z,100673.09
2018-07-05T20:52:51.858Z,100678.38
2018-07-05T20:58:06.570Z,100678.17
2018-07-05T21:03:21.495Z,100684.80
2018-07-05T21:08:36.082Z,100688.47
2018-07-05T21:13:51.353Z,100694.95
2018-07-05T21:19:06.169Z,100698.61
2018-07-05T21:24:20.894Z,100708.23
2018-07-05T21:29:35.761Z,100709.70
2018-07-05T21:34:50.770Z,100715.22
2018-07-05T21:40:05.582Z,100712.06
2018-07-05T21:45:20.328Z,100723.62
2018-07-05T21:50:35.197Z,100729.28
2018-07-05T21:55:50.128Z,100730.97
2018-07-05T22:01:04.803Z,100733.66
2018-07-05T22:06:19.543Z,100743.34
2018-07-05T22:11:34.193Z,100745.80
2018-07-05T22:16:54.401Z,100742.20
2018-07-05T22:22:14.726Z,100734.94
2018-07-05T22:27:34.877Z,100740.77
2018-07-05T22:32:49.479Z,100747.26
2018-07-05T22:38:04.330Z,100744.84
2018-07-05T22:43:18.973Z,100754.47
2018-07-05T22:48:34.026Z,100766.58
2018-07-05T22:53:48.910Z,100770.91
2018-07-05T22:59:03.606Z,100775.98
2018-07-05T23:04:19.292Z,100780.09
2018-07-05T23:09:33.993Z,100780.78
2018-07-05T23:14:48.741Z,100795.94
2018-07-05T23:20:03.366Z,100800.64
2018-07-05T23:25:18.227Z,100814.15
2018-07-05T23:30:32.923Z,100805.59
2018-07-05T23:35:47.772Z,100804.59
2018-07-05T23:41:02.502Z,100813.50
2018-07-05T23:46:17.227Z,100802.46
2018-07-05T23:51:33.401Z,100802.70
2018-07-05T23:56:48.772Z,100809.28
